sensor_id;sensor_type;location;lat;lon;timestamp;P1;durP1;ratioP1;P2;durP2;ratioP2
65469;SDS011;52067;50.710;14.492;2022-08-03T00:00:41;10.20;;;6.90;;
65469;SDS011;52067;50.710;14.492;2022-08-03T00:03:06;9.25;;;7.30;;
65469;SDS011;52067;50.710;14.492;2022-08-03T00:05:32;10.02;;;7.20;;
65469;SDS011;52067;50.710;14.492;2022-08-03T00:07:58;10.07;;;7.55;;
65469;SDS011;52067;50.710;14.492;2022-08-03T00:10:24;9.65;;;7.32;;
65469;SDS011;52067;50.710;14.492;2022-08-03T00:12:49;7.82;;;6.05;;
65469;SDS011;52067;50.710;14.492;2022-08-03T00:15:15;8.13;;;6.32;;
65469;SDS011;52067;50.710;14.492;2022-08-03T00:17:40;7.88;;;5.90;;
65469;SDS011;52067;50.710;14.492;2022-08-03T00:20:06;7.25;;;6.22;;
65469;SDS011;52067;50.710;14.492;2022-08-03T00:22:33;7.90;;;5.50;;
65469;SDS011;52067;50.710;14.492;2022-08-03T00:24:59;7.53;;;5.78;;
65469;SDS011;52067;50.710;14.492;2022-08-03T00:27:24;7.53;;;5.72;;
65469;SDS011;52067;50.710;14.492;2022-08-03T00:29:50;9.60;;;5.82;;
65469;SDS011;52067;50.710;14.492;2022-08-03T00:32:15;7.32;;;5.97;;
65469;SDS011;52067;50.710;14.492;2022-08-03T00:34:40;7.97;;;6.05;;
65469;SDS011;52067;50.710;14.492;2022-08-03T00:37:06;6.70;;;5.32;;
65469;SDS011;52067;50.710;14.492;2022-08-03T00:39:31;9.25;;;5.40;;
65469;SDS011;52067;50.710;14.492;2022-08-03T00:42:00;8.60;;;5.50;;
65469;SDS011;52067;50.710;14.492;2022-08-03T00:44:26;6.38;;;5.30;;
65469;SDS011;52067;50.710;14.492;2022-08-03T00:46:51;11.43;;;5.05;;
65469;SDS011;52067;50.710;14.492;2022-08-03T00:49:17;5.85;;;5.10;;
65469;SDS011;52067;50.710;14.492;2022-08-03T00:51:42;7.45;;;5.38;;
65469;SDS011;52067;50.710;14.492;2022-08-03T00:54:08;6.90;;;5.07;;
65469;SDS011;52067;50.710;14.492;2022-08-03T00:56:34;6.05;;;4.90;;
65469;SDS011;52067;50.710;14.492;2022-08-03T00:59:01;6.15;;;5.18;;
65469;SDS011;52067;50.710;14.492;2022-08-03T01:01:28;6.18;;;5.10;;
65469;SDS011;52067;50.710;14.492;2022-08-03T01:03:53;7.32;;;5.53;;
65469;SDS011;52067;50.710;14.492;2022-08-03T01:06:19;7.88;;;5.43;;
65469;SDS011;52067;50.710;14.492;2022-08-03T01:11:48;6.15;;;5.00;;
65469;SDS011;52067;50.710;14.492;2022-08-03T01:14:26;5.40;;;4.67;;
65469;SDS011;52067;50.710;14.492;2022-08-03T01:20:19;6.72;;;5.25;;
65469;SDS011;52067;50.710;14.492;2022-08-03T01:25:22;7.88;;;5.05;;
65469;SDS011;52067;50.710;14.492;2022-08-03T01:30:21;6.95;;;5.40;;
65469;SDS011;52067;50.710;14.492;2022-08-03T01:32:54;6.60;;;5.25;;
65469;SDS011;52067;50.710;14.492;2022-08-03T01:35:25;6.07;;;5.03;;
65469;SDS011;52067;50.710;14.492;2022-08-03T01:37:56;9.55;;;5.60;;
65469;SDS011;52067;50.710;14.492;2022-08-03T01:40:25;8.60;;;5.30;;
65469;SDS011;52067;50.710;14.492;2022-08-03T01:42:53;7.20;;;5.28;;
65469;SDS011;52067;50.710;14.492;2022-08-03T01:45:21;6.18;;;5.03;;
65469;SDS011;52067;50.710;14.492;2022-08-03T01:47:48;7.18;;;5.10;;
65469;SDS011;52067;50.710;14.492;2022-08-03T01:50:14;8.80;;;5.63;;
65469;SDS011;52067;50.710;14.492;2022-08-03T01:52:43;7.72;;;5.45;;
65469;SDS011;52067;50.710;14.492;2022-08-03T01:55:10;7.63;;;5.57;;
65469;SDS011;52067;50.710;14.492;2022-08-03T01:57:37;6.63;;;5.30;;
65469;SDS011;52067;50.710;14.492;2022-08-03T02:00:05;6.90;;;5.85;;
65469;SDS011;52067;50.710;14.492;2022-08-03T02:02:33;8.93;;;5.13;;
65469;SDS011;52067;50.710;14.492;2022-08-03T02:05:01;7.60;;;5.13;;
65469;SDS011;52067;50.710;14.492;2022-08-03T02:07:29;7.45;;;5.68;;
65469;SDS011;52067;50.710;14.492;2022-08-03T02:09:56;8.10;;;5.40;;
65469;SDS011;52067;50.710;14.492;2022-08-03T02:12:24;5.88;;;5.13;;
65469;SDS011;52067;50.710;14.492;2022-08-03T02:14:51;7.28;;;5.55;;
65469;SDS011;52067;50.710;14.492;2022-08-03T02:17:18;7.43;;;5.43;;
65469;SDS011;52067;50.710;14.492;2022-08-03T02:19:44;8.18;;;5.25;;
65469;SDS011;52067;50.710;14.492;2022-08-03T02:22:10;6.68;;;5.70;;
65469;SDS011;52067;50.710;14.492;2022-08-03T02:24:37;8.00;;;5.22;;
65469;SDS011;52067;50.710;14.492;2022-08-03T02:27:04;7.63;;;5.60;;
65469;SDS011;52067;50.710;14.492;2022-08-03T02:29:38;7.78;;;5.20;;
65469;SDS011;52067;50.710;14.492;2022-08-03T02:32:11;6.85;;;4.90;;
65469;SDS011;52067;50.710;14.492;2022-08-03T02:34:39;7.82;;;4.75;;
65469;SDS011;52067;50.710;14.492;2022-08-03T02:37:07;6.85;;;5.03;;
65469;SDS011;52067;50.710;14.492;2022-08-03T02:39:34;9.05;;;5.80;;
65469;SDS011;52067;50.710;14.492;2022-08-03T02:42:01;6.97;;;5.82;;
65469;SDS011;52067;50.710;14.492;2022-08-03T02:44:28;5.78;;;5.18;;
65469;SDS011;52067;50.710;14.492;2022-08-03T02:46:58;7.47;;;5.22;;
65469;SDS011;52067;50.710;14.492;2022-08-03T02:49:27;6.32;;;5.00;;
65469;SDS011;52067;50.710;14.492;2022-08-03T02:51:54;8.05;;;5.45;;
65469;SDS011;52067;50.710;14.492;2022-08-03T02:54:21;7.65;;;5.38;;
65469;SDS011;52067;50.710;14.492;2022-08-03T02:56:49;7.78;;;5.30;;
65469;SDS011;52067;50.710;14.492;2022-08-03T02:59:17;8.07;;;5.38;;
65469;SDS011;52067;50.710;14.492;2022-08-03T03:01:45;7.03;;;4.70;;
65469;SDS011;52067;50.710;14.492;2022-08-03T03:04:10;5.38;;;4.63;;
65469;SDS011;52067;50.710;14.492;2022-08-03T03:06:37;8.68;;;4.80;;
65469;SDS011;52067;50.710;14.492;2022-08-03T03:09:04;5.45;;;4.78;;
65469;SDS011;52067;50.710;14.492;2022-08-03T03:11:29;9.18;;;4.88;;
65469;SDS011;52067;50.710;14.492;2022-08-03T03:13:56;6.00;;;4.80;;
65469;SDS011;52067;50.710;14.492;2022-08-03T03:16:22;6.78;;;4.60;;
65469;SDS011;52067;50.710;14.492;2022-08-03T03:18:50;7.00;;;4.95;;
65469;SDS011;52067;50.710;14.492;2022-08-03T03:21:18;5.97;;;4.70;;
65469;SDS011;52067;50.710;14.492;2022-08-03T03:23:45;7.25;;;5.40;;
65469;SDS011;52067;50.710;14.492;2022-08-03T03:26:11;10.30;;;5.70;;
65469;SDS011;52067;50.710;14.492;2022-08-03T03:28:38;6.40;;;5.13;;
65469;SDS011;52067;50.710;14.492;2022-08-03T03:31:05;6.53;;;5.30;;
65469;SDS011;52067;50.710;14.492;2022-08-03T03:33:34;6.13;;;5.22;;
65469;SDS011;52067;50.710;14.492;2022-08-03T03:36:01;6.45;;;5.22;;
65469;SDS011;52067;50.710;14.492;2022-08-03T03:38:26;10.40;;;5.40;;
65469;SDS011;52067;50.710;14.492;2022-08-03T03:40:52;7.10;;;5.55;;
65469;SDS011;52067;50.710;14.492;2022-08-03T03:43:18;7.63;;;5.57;;
65469;SDS011;52067;50.710;14.492;2022-08-03T03:45:44;9.95;;;5.68;;
65469;SDS011;52067;50.710;14.492;2022-08-03T03:48:10;7.10;;;5.47;;
65469;SDS011;52067;50.710;14.492;2022-08-03T03:50:36;8.13;;;5.70;;
65469;SDS011;52067;50.710;14.492;2022-08-03T03:53:07;7.97;;;5.88;;
65469;SDS011;52067;50.710;14.492;2022-08-03T03:55:33;8.15;;;5.57;;
65469;SDS011;52067;50.710;14.492;2022-08-03T03:57:58;6.80;;;5.70;;
65469;SDS011;52067;50.710;14.492;2022-08-03T04:00:24;9.10;;;6.18;;
65469;SDS011;52067;50.710;14.492;2022-08-03T04:02:49;8.40;;;5.60;;
65469;SDS011;52067;50.710;14.492;2022-08-03T04:05:14;8.20;;;5.70;;
65469;SDS011;52067;50.710;14.492;2022-08-03T04:08:09;6.60;;;5.50;;
65469;SDS011;52067;50.710;14.492;2022-08-03T04:13:33;6.65;;;5.35;;
65469;SDS011;52067;50.710;14.492;2022-08-03T04:16:02;9.48;;;5.80;;
65469;SDS011;52067;50.710;14.492;2022-08-03T04:18:29;7.20;;;5.65;;
65469;SDS011;52067;50.710;14.492;2022-08-03T04:20:58;6.70;;;5.50;;
65469;SDS011;52067;50.710;14.492;2022-08-03T04:23:27;13.20;;;5.63;;
65469;SDS011;52067;50.710;14.492;2022-08-03T04:25:57;6.68;;;4.80;;
65469;SDS011;52067;50.710;14.492;2022-08-03T04:28:25;9.40;;;5.60;;
65469;SDS011;52067;50.710;14.492;2022-08-03T04:30:52;15.95;;;5.47;;
65469;SDS011;52067;50.710;14.492;2022-08-03T04:33:18;10.85;;;5.20;;
65469;SDS011;52067;50.710;14.492;2022-08-03T04:35:45;12.43;;;5.30;;
65469;SDS011;52067;50.710;14.492;2022-08-03T04:38:13;8.40;;;5.25;;
65469;SDS011;52067;50.710;14.492;2022-08-03T04:40:42;7.82;;;5.22;;
65469;SDS011;52067;50.710;14.492;2022-08-03T04:43:08;8.30;;;4.60;;
65469;SDS011;52067;50.710;14.492;2022-08-03T04:45:35;6.20;;;5.07;;
65469;SDS011;52067;50.710;14.492;2022-08-03T04:48:02;6.45;;;5.10;;
65469;SDS011;52067;50.710;14.492;2022-08-03T04:50:28;5.68;;;5.07;;
65469;SDS011;52067;50.710;14.492;2022-08-03T04:52:54;6.47;;;5.13;;
65469;SDS011;52067;50.710;14.492;2022-08-03T04:55:24;8.20;;;5.25;;
65469;SDS011;52067;50.710;14.492;2022-08-03T04:58:00;5.82;;;5.10;;
65469;SDS011;52067;50.710;14.492;2022-08-03T05:00:27;6.53;;;4.75;;
65469;SDS011;52067;50.710;14.492;2022-08-03T05:02:53;6.90;;;4.68;;
65469;SDS011;52067;50.710;14.492;2022-08-03T05:05:19;6.80;;;4.63;;
65469;SDS011;52067;50.710;14.492;2022-08-03T05:07:45;8.15;;;4.50;;
65469;SDS011;52067;50.710;14.492;2022-08-03T05:10:11;7.93;;;4.53;;
65469;SDS011;52067;50.710;14.492;2022-08-03T05:12:37;6.60;;;4.53;;
65469;SDS011;52067;50.710;14.492;2022-08-03T05:15:03;6.63;;;4.55;;
65469;SDS011;52067;50.710;14.492;2022-08-03T05:17:29;6.70;;;4.65;;
65469;SDS011;52067;50.710;14.492;2022-08-03T05:19:54;6.35;;;4.40;;
65469;SDS011;52067;50.710;14.492;2022-08-03T05:22:21;7.13;;;4.65;;
65469;SDS011;52067;50.710;14.492;2022-08-03T05:24:47;7.72;;;4.78;;
65469;SDS011;52067;50.710;14.492;2022-08-03T05:27:12;6.38;;;4.53;;
65469;SDS011;52067;50.710;14.492;2022-08-03T05:29:43;4.97;;;4.18;;
65469;SDS011;52067;50.710;14.492;2022-08-03T05:32:09;5.40;;;4.43;;
65469;SDS011;52067;50.710;14.492;2022-08-03T05:34:34;5.90;;;4.28;;
65469;SDS011;52067;50.710;14.492;2022-08-03T05:36:59;5.28;;;4.28;;
65469;SDS011;52067;50.710;14.492;2022-08-03T05:39:25;8.13;;;4.18;;
65469;SDS011;52067;50.710;14.492;2022-08-03T05:41:50;5.28;;;4.10;;
65469;SDS011;52067;50.710;14.492;2022-08-03T05:44:15;6.85;;;4.10;;
65469;SDS011;52067;50.710;14.492;2022-08-03T05:46:41;5.63;;;4.15;;
65469;SDS011;52067;50.710;14.492;2022-08-03T05:49:06;9.15;;;4.20;;
65469;SDS011;52067;50.710;14.492;2022-08-03T05:51:31;5.07;;;3.92;;
65469;SDS011;52067;50.710;14.492;2022-08-03T05:53:57;6.63;;;3.53;;
65469;SDS011;52067;50.710;14.492;2022-08-03T05:56:23;6.32;;;3.80;;
65469;SDS011;52067;50.710;14.492;2022-08-03T05:58:49;6.95;;;4.22;;
65469;SDS011;52067;50.710;14.492;2022-08-03T06:01:16;6.07;;;4.25;;
65469;SDS011;52067;50.710;14.492;2022-08-03T06:03:42;4.78;;;3.95;;
65469;SDS011;52067;50.710;14.492;2022-08-03T06:06:08;6.53;;;3.80;;
65469;SDS011;52067;50.710;14.492;2022-08-03T06:08:33;18.27;;;3.90;;
65469;SDS011;52067;50.710;14.492;2022-08-03T06:10:59;5.13;;;3.80;;
65469;SDS011;52067;50.710;14.492;2022-08-03T06:13:24;6.55;;;3.60;;
65469;SDS011;52067;50.710;14.492;2022-08-03T06:15:50;6.45;;;3.35;;
65469;SDS011;52067;50.710;14.492;2022-08-03T06:18:15;4.28;;;3.35;;
65469;SDS011;52067;50.710;14.492;2022-08-03T06:20:40;6.82;;;3.30;;
65469;SDS011;52067;50.710;14.492;2022-08-03T06:23:06;5.00;;;3.30;;
65469;SDS011;52067;50.710;14.492;2022-08-03T06:25:31;4.78;;;3.17;;
65469;SDS011;52067;50.710;14.492;2022-08-03T06:27:56;6.05;;;3.20;;
65469;SDS011;52067;50.710;14.492;2022-08-03T06:30:23;6.50;;;3.10;;
65469;SDS011;52067;50.710;14.492;2022-08-03T06:32:49;3.78;;;3.03;;
65469;SDS011;52067;50.710;14.492;2022-08-03T06:35:14;4.75;;;3.17;;
65469;SDS011;52067;50.710;14.492;2022-08-03T06:37:40;3.95;;;3.20;;
65469;SDS011;52067;50.710;14.492;2022-08-03T06:40:14;5.85;;;3.55;;
65469;SDS011;52067;50.710;14.492;2022-08-03T06:42:44;7.77;;;3.27;;
65469;SDS011;52067;50.710;14.492;2022-08-03T06:45:10;7.53;;;3.20;;
65469;SDS011;52067;50.710;14.492;2022-08-03T06:47:36;5.47;;;3.35;;
65469;SDS011;52067;50.710;14.492;2022-08-03T06:50:05;4.15;;;3.60;;
65469;SDS011;52067;50.710;14.492;2022-08-03T06:52:33;5.38;;;3.15;;
65469;SDS011;52067;50.710;14.492;2022-08-03T06:54:59;8.60;;;3.50;;
65469;SDS011;52067;50.710;14.492;2022-08-03T06:57:24;6.55;;;3.20;;
65469;SDS011;52067;50.710;14.492;2022-08-03T06:59:50;5.88;;;3.28;;
65469;SDS011;52067;50.710;14.492;2022-08-03T07:02:16;3.60;;;3.10;;
65469;SDS011;52067;50.710;14.492;2022-08-03T07:04:43;3.92;;;3.13;;
65469;SDS011;52067;50.710;14.492;2022-08-03T07:07:08;5.47;;;3.10;;
65469;SDS011;52067;50.710;14.492;2022-08-03T07:09:34;4.68;;;3.05;;
65469;SDS011;52067;50.710;14.492;2022-08-03T07:11:59;4.60;;;3.00;;
65469;SDS011;52067;50.710;14.492;2022-08-03T07:14:26;8.52;;;2.92;;
65469;SDS011;52067;50.710;14.492;2022-08-03T07:16:52;4.63;;;3.30;;
65469;SDS011;52067;50.710;14.492;2022-08-03T07:19:17;7.88;;;2.95;;
65469;SDS011;52067;50.710;14.492;2022-08-03T07:21:42;4.40;;;3.08;;
65469;SDS011;52067;50.710;14.492;2022-08-03T07:24:08;5.30;;;3.13;;
65469;SDS011;52067;50.710;14.492;2022-08-03T07:26:33;3.97;;;2.95;;
65469;SDS011;52067;50.710;14.492;2022-08-03T07:28:58;10.52;;;3.15;;
65469;SDS011;52067;50.710;14.492;2022-08-03T07:31:25;8.35;;;3.40;;
65469;SDS011;52067;50.710;14.492;2022-08-03T07:33:51;5.30;;;3.30;;
65469;SDS011;52067;50.710;14.492;2022-08-03T07:36:16;4.65;;;3.15;;
65469;SDS011;52067;50.710;14.492;2022-08-03T07:38:41;5.13;;;3.08;;
65469;SDS011;52067;50.710;14.492;2022-08-03T07:41:07;5.70;;;3.05;;
65469;SDS011;52067;50.710;14.492;2022-08-03T07:43:32;4.47;;;3.13;;
65469;SDS011;52067;50.710;14.492;2022-08-03T07:45:57;6.63;;;3.50;;
65469;SDS011;52067;50.710;14.492;2022-08-03T07:48:23;7.65;;;2.97;;
65469;SDS011;52067;50.710;14.492;2022-08-03T07:50:48;5.93;;;3.30;;
65469;SDS011;52067;50.710;14.492;2022-08-03T07:53:14;5.90;;;3.20;;
65469;SDS011;52067;50.710;14.492;2022-08-03T07:55:40;4.90;;;3.22;;
65469;SDS011;52067;50.710;14.492;2022-08-03T07:58:07;4.78;;;3.10;;
65469;SDS011;52067;50.710;14.492;2022-08-03T08:00:36;4.10;;;3.25;;
65469;SDS011;52067;50.710;14.492;2022-08-03T08:03:02;4.03;;;2.78;;
65469;SDS011;52067;50.710;14.492;2022-08-03T08:05:28;11.93;;;3.35;;
65469;SDS011;52067;50.710;14.492;2022-08-03T08:07:53;4.45;;;3.00;;
65469;SDS011;52067;50.710;14.492;2022-08-03T08:10:19;4.25;;;3.30;;
65469;SDS011;52067;50.710;14.492;2022-08-03T08:12:45;5.53;;;3.20;;
65469;SDS011;52067;50.710;14.492;2022-08-03T08:15:10;6.43;;;3.45;;
65469;SDS011;52067;50.710;14.492;2022-08-03T08:17:49;6.18;;;3.22;;
65469;SDS011;52067;50.710;14.492;2022-08-03T08:20:17;5.53;;;3.20;;
65469;SDS011;52067;50.710;14.492;2022-08-03T08:22:44;4.75;;;3.20;;
65469;SDS011;52067;50.710;14.492;2022-08-03T08:25:09;10.18;;;3.30;;
65469;SDS011;52067;50.710;14.492;2022-08-03T08:27:42;5.25;;;3.20;;
65469;SDS011;52067;50.710;14.492;2022-08-03T08:30:10;4.55;;;3.20;;
65469;SDS011;52067;50.710;14.492;2022-08-03T08:32:36;4.55;;;3.20;;
65469;SDS011;52067;50.710;14.492;2022-08-03T08:35:05;4.53;;;3.30;;
65469;SDS011;52067;50.710;14.492;2022-08-03T08:37:31;9.27;;;3.10;;
65469;SDS011;52067;50.710;14.492;2022-08-03T08:39:57;3.03;;;2.72;;
65469;SDS011;52067;50.710;14.492;2022-08-03T08:42:23;4.72;;;2.83;;
65469;SDS011;52067;50.710;14.492;2022-08-03T08:44:49;5.22;;;2.83;;
65469;SDS011;52067;50.710;14.492;2022-08-03T08:47:14;4.65;;;3.00;;
65469;SDS011;52067;50.710;14.492;2022-08-03T08:49:43;3.72;;;2.88;;
65469;SDS011;52067;50.710;14.492;2022-08-03T08:52:10;6.50;;;2.92;;
65469;SDS011;52067;50.710;14.492;2022-08-03T08:54:37;28.58;;;4.65;;
65469;SDS011;52067;50.710;14.492;2022-08-03T08:57:08;7.35;;;3.25;;
65469;SDS011;52067;50.710;14.492;2022-08-03T08:59:35;8.88;;;3.50;;
65469;SDS011;52067;50.710;14.492;2022-08-03T09:02:00;4.70;;;2.80;;
65469;SDS011;52067;50.710;14.492;2022-08-03T09:04:30;24.15;;;4.85;;
65469;SDS011;52067;50.710;14.492;2022-08-03T09:06:56;112.93;;;15.50;;
65469;SDS011;52067;50.710;14.492;2022-08-03T09:09:21;4.78;;;2.90;;
65469;SDS011;52067;50.710;14.492;2022-08-03T09:11:47;4.45;;;2.42;;
65469;SDS011;52067;50.710;14.492;2022-08-03T09:14:13;7.57;;;2.30;;
65469;SDS011;52067;50.710;14.492;2022-08-03T09:16:53;3.53;;;2.50;;
65469;SDS011;52067;50.710;14.492;2022-08-03T09:19:21;6.72;;;2.67;;
65469;SDS011;52067;50.710;14.492;2022-08-03T09:21:46;7.68;;;2.70;;
65469;SDS011;52067;50.710;14.492;2022-08-03T09:24:32;4.45;;;2.60;;
65469;SDS011;52067;50.710;14.492;2022-08-03T09:26:57;5.35;;;2.40;;
65469;SDS011;52067;50.710;14.492;2022-08-03T09:29:23;5.07;;;2.67;;
65469;SDS011;52067;50.710;14.492;2022-08-03T09:31:49;8.27;;;2.40;;
65469;SDS011;52067;50.710;14.492;2022-08-03T09:34:25;3.90;;;2.35;;
65469;SDS011;52067;50.710;14.492;2022-08-03T09:36:52;3.78;;;2.60;;
65469;SDS011;52067;50.710;14.492;2022-08-03T09:39:19;8.30;;;2.80;;
65469;SDS011;52067;50.710;14.492;2022-08-03T09:41:47;4.15;;;2.55;;
65469;SDS011;52067;50.710;14.492;2022-08-03T09:44:35;4.57;;;2.60;;
65469;SDS011;52067;50.710;14.492;2022-08-03T09:47:02;6.63;;;2.30;;
65469;SDS011;52067;50.710;14.492;2022-08-03T09:49:29;10.18;;;2.80;;
65469;SDS011;52067;50.710;14.492;2022-08-03T09:51:55;6.38;;;2.67;;
65469;SDS011;52067;50.710;14.492;2022-08-03T09:54:27;5.63;;;2.42;;
65469;SDS011;52067;50.710;14.492;2022-08-03T09:56:53;8.88;;;2.75;;
65469;SDS011;52067;50.710;14.492;2022-08-03T09:59:25;3.38;;;2.42;;
65469;SDS011;52067;50.710;14.492;2022-08-03T10:01:52;3.40;;;2.58;;
65469;SDS011;52067;50.710;14.492;2022-08-03T10:04:19;5.45;;;2.30;;
65469;SDS011;52067;50.710;14.492;2022-08-03T10:06:45;4.20;;;2.20;;
65469;SDS011;52067;50.710;14.492;2022-08-03T10:09:27;4.88;;;2.50;;
65469;SDS011;52067;50.710;14.492;2022-08-03T10:11:52;5.10;;;2.20;;
65469;SDS011;52067;50.710;14.492;2022-08-03T10:14:18;5.30;;;2.28;;
65469;SDS011;52067;50.710;14.492;2022-08-03T10:16:45;5.78;;;2.60;;
65469;SDS011;52067;50.710;14.492;2022-08-03T10:19:11;16.50;;;4.00;;
65469;SDS011;52067;50.710;14.492;2022-08-03T10:21:39;3.75;;;2.22;;
65469;SDS011;52067;50.710;14.492;2022-08-03T10:24:10;6.28;;;2.30;;
65469;SDS011;52067;50.710;14.492;2022-08-03T10:26:40;3.60;;;2.30;;
65469;SDS011;52067;50.710;14.492;2022-08-03T10:29:11;5.93;;;2.40;;
65469;SDS011;52067;50.710;14.492;2022-08-03T10:31:39;4.43;;;2.17;;
65469;SDS011;52067;50.710;14.492;2022-08-03T10:34:10;3.05;;;2.17;;
65469;SDS011;52067;50.710;14.492;2022-08-03T10:36:41;4.63;;;2.20;;
65469;SDS011;52067;50.710;14.492;2022-08-03T10:39:08;2.88;;;2.10;;
65469;SDS011;52067;50.710;14.492;2022-08-03T10:41:36;4.97;;;2.28;;
65469;SDS011;52067;50.710;14.492;2022-08-03T10:44:10;4.15;;;2.10;;
65469;SDS011;52067;50.710;14.492;2022-08-03T10:46:39;2.78;;;2.20;;
65469;SDS011;52067;50.710;14.492;2022-08-03T10:49:06;3.35;;;2.13;;
65469;SDS011;52067;50.710;14.492;2022-08-03T10:51:32;4.35;;;2.20;;
65469;SDS011;52067;50.710;14.492;2022-08-03T10:53:59;7.57;;;2.38;;
65469;SDS011;52067;50.710;14.492;2022-08-03T10:59:14;3.88;;;1.85;;
65469;SDS011;52067;50.710;14.492;2022-08-03T11:04:18;4.80;;;2.00;;
65469;SDS011;52067;50.710;14.492;2022-08-03T11:06:44;17.33;;;2.72;;
65469;SDS011;52067;50.710;14.492;2022-08-03T11:11:40;2.60;;;1.90;;
65469;SDS011;52067;50.710;14.492;2022-08-03T11:14:08;3.95;;;2.20;;
65469;SDS011;52067;50.710;14.492;2022-08-03T11:16:36;6.53;;;2.03;;
65469;SDS011;52067;50.710;14.492;2022-08-03T11:19:08;6.45;;;2.10;;
65469;SDS011;52067;50.710;14.492;2022-08-03T11:43:06;6.68;;;2.00;;
65469;SDS011;52067;50.710;14.492;2022-08-03T11:48:35;3.30;;;1.80;;
65469;SDS011;52067;50.710;14.492;2022-08-03T11:51:03;6.65;;;2.00;;
65469;SDS011;52067;50.710;14.492;2022-08-03T11:53:30;4.97;;;1.90;;
65469;SDS011;52067;50.710;14.492;2022-08-03T11:56:00;4.10;;;1.95;;
65469;SDS011;52067;50.710;14.492;2022-08-03T11:58:26;6.78;;;2.10;;
65469;SDS011;52067;50.710;14.492;2022-08-03T12:00:56;4.10;;;1.92;;
65469;SDS011;52067;50.710;14.492;2022-08-03T12:03:30;2.55;;;1.92;;
65469;SDS011;52067;50.710;14.492;2022-08-03T12:05:56;5.05;;;2.17;;
65469;SDS011;52067;50.710;14.492;2022-08-03T12:10:50;4.63;;;1.98;;
65469;SDS011;52067;50.710;14.492;2022-08-03T12:13:16;3.75;;;2.05;;
65469;SDS011;52067;50.710;14.492;2022-08-03T12:15:42;4.70;;;2.00;;
65469;SDS011;52067;50.710;14.492;2022-08-03T12:18:15;4.80;;;1.75;;
65469;SDS011;52067;50.710;14.492;2022-08-03T12:20:41;13.68;;;2.30;;
65469;SDS011;52067;50.710;14.492;2022-08-03T12:23:08;7.40;;;2.13;;
65469;SDS011;52067;50.710;14.492;2022-08-03T12:25:34;2.65;;;2.00;;
65469;SDS011;52067;50.710;14.492;2022-08-03T12:28:08;3.13;;;2.10;;
65469;SDS011;52067;50.710;14.492;2022-08-03T12:30:40;4.03;;;1.75;;
65469;SDS011;52067;50.710;14.492;2022-08-03T12:35:50;2.20;;;1.83;;
65469;SDS011;52067;50.710;14.492;2022-08-03T12:38:27;4.15;;;2.13;;
65469;SDS011;52067;50.710;14.492;2022-08-03T12:40:57;3.95;;;1.88;;
65469;SDS011;52067;50.710;14.492;2022-08-03T12:43:23;3.97;;;1.85;;
65469;SDS011;52067;50.710;14.492;2022-08-03T12:45:49;2.25;;;1.90;;
65469;SDS011;52067;50.710;14.492;2022-08-03T12:48:15;3.53;;;1.73;;
65469;SDS011;52067;50.710;14.492;2022-08-03T12:50:40;2.80;;;1.80;;
65469;SDS011;52067;50.710;14.492;2022-08-03T12:53:07;3.25;;;1.77;;
65469;SDS011;52067;50.710;14.492;2022-08-03T12:55:34;4.60;;;1.77;;
65469;SDS011;52067;50.710;14.492;2022-08-03T12:58:04;4.10;;;1.80;;
65469;SDS011;52067;50.710;14.492;2022-08-03T13:03:06;5.28;;;1.75;;
65469;SDS011;52067;50.710;14.492;2022-08-03T13:05:41;3.22;;;1.70;;
65469;SDS011;52067;50.710;14.492;2022-08-03T13:08:21;5.57;;;1.80;;
65469;SDS011;52067;50.710;14.492;2022-08-03T13:10:47;2.10;;;1.77;;
65469;SDS011;52067;50.710;14.492;2022-08-03T13:13:13;2.42;;;1.90;;
65469;SDS011;52067;50.710;14.492;2022-08-03T13:15:38;3.13;;;1.77;;
65469;SDS011;52067;50.710;14.492;2022-08-03T13:18:04;2.95;;;2.10;;
65469;SDS011;52067;50.710;14.492;2022-08-03T13:20:29;4.15;;;2.00;;
65469;SDS011;52067;50.710;14.492;2022-08-03T13:22:55;4.10;;;1.77;;
65469;SDS011;52067;50.710;14.492;2022-08-03T13:25:21;2.25;;;1.77;;
65469;SDS011;52067;50.710;14.492;2022-08-03T13:27:47;6.90;;;1.90;;
65469;SDS011;52067;50.710;14.492;2022-08-03T13:30:13;4.63;;;1.80;;
65469;SDS011;52067;50.710;14.492;2022-08-03T13:32:39;2.15;;;1.70;;
65469;SDS011;52067;50.710;14.492;2022-08-03T13:35:06;4.00;;;1.80;;
65469;SDS011;52067;50.710;14.492;2022-08-03T13:37:32;2.92;;;1.55;;
65469;SDS011;52067;50.710;14.492;2022-08-03T13:39:58;3.03;;;1.73;;
65469;SDS011;52067;50.710;14.492;2022-08-03T13:42:24;3.35;;;1.67;;
65469;SDS011;52067;50.710;14.492;2022-08-03T13:44:49;4.65;;;1.85;;
65469;SDS011;52067;50.710;14.492;2022-08-03T13:47:15;3.40;;;1.88;;
65469;SDS011;52067;50.710;14.492;2022-08-03T13:49:40;2.37;;;1.90;;
65469;SDS011;52067;50.710;14.492;2022-08-03T13:52:06;2.72;;;1.73;;
65469;SDS011;52067;50.710;14.492;2022-08-03T13:54:31;3.75;;;1.50;;
65469;SDS011;52067;50.710;14.492;2022-08-03T13:56:57;3.03;;;1.58;;
65469;SDS011;52067;50.710;14.492;2022-08-03T13:59:23;1.80;;;1.70;;
65469;SDS011;52067;50.710;14.492;2022-08-03T14:01:50;4.65;;;1.70;;
65469;SDS011;52067;50.710;14.492;2022-08-03T14:04:17;2.20;;;1.63;;
65469;SDS011;52067;50.710;14.492;2022-08-03T14:06:42;4.63;;;1.90;;
65469;SDS011;52067;50.710;14.492;2022-08-03T14:09:09;3.08;;;1.80;;
65469;SDS011;52067;50.710;14.492;2022-08-03T14:11:35;2.90;;;1.60;;
65469;SDS011;52067;50.710;14.492;2022-08-03T14:14:00;3.67;;;1.73;;
65469;SDS011;52067;50.710;14.492;2022-08-03T14:16:26;3.53;;;1.77;;
65469;SDS011;52067;50.710;14.492;2022-08-03T14:18:51;2.75;;;1.60;;
65469;SDS011;52067;50.710;14.492;2022-08-03T14:21:16;5.17;;;1.80;;
65469;SDS011;52067;50.710;14.492;2022-08-03T14:23:42;2.42;;;1.88;;
65469;SDS011;52067;50.710;14.492;2022-08-03T14:26:07;4.83;;;1.80;;
65469;SDS011;52067;50.710;14.492;2022-08-03T14:28:33;2.63;;;1.83;;
65469;SDS011;52067;50.710;14.492;2022-08-03T14:30:59;4.82;;;1.70;;
65469;SDS011;52067;50.710;14.492;2022-08-03T14:33:25;2.10;;;1.70;;
65469;SDS011;52067;50.710;14.492;2022-08-03T14:35:52;31.45;;;2.55;;
65469;SDS011;52067;50.710;14.492;2022-08-03T14:38:18;2.03;;;1.60;;
65469;SDS011;52067;50.710;14.492;2022-08-03T14:40:44;4.30;;;1.55;;
65469;SDS011;52067;50.710;14.492;2022-08-03T14:43:10;7.18;;;1.77;;
65469;SDS011;52067;50.710;14.492;2022-08-03T14:45:37;3.85;;;1.88;;
65469;SDS011;52067;50.710;14.492;2022-08-03T14:48:02;3.65;;;1.63;;
65469;SDS011;52067;50.710;14.492;2022-08-03T14:50:28;6.13;;;1.83;;
65469;SDS011;52067;50.710;14.492;2022-08-03T14:52:54;6.32;;;1.70;;
65469;SDS011;52067;50.710;14.492;2022-08-03T14:55:20;2.78;;;1.50;;
65469;SDS011;52067;50.710;14.492;2022-08-03T14:57:45;4.03;;;1.80;;
65469;SDS011;52067;50.710;14.492;2022-08-03T15:00:11;5.90;;;1.80;;
65469;SDS011;52067;50.710;14.492;2022-08-03T15:02:37;4.10;;;1.60;;
65469;SDS011;52067;50.710;14.492;2022-08-03T15:05:02;1.67;;;1.48;;
65469;SDS011;52067;50.710;14.492;2022-08-03T15:07:28;2.70;;;1.70;;
65469;SDS011;52067;50.710;14.492;2022-08-03T15:09:53;4.00;;;1.63;;
65469;SDS011;52067;50.710;14.492;2022-08-03T15:12:19;5.03;;;1.70;;
65469;SDS011;52067;50.710;14.492;2022-08-03T15:14:47;2.67;;;1.65;;
65469;SDS011;52067;50.710;14.492;2022-08-03T15:17:12;10.05;;;1.90;;
65469;SDS011;52067;50.710;14.492;2022-08-03T15:19:38;2.20;;;1.60;;
65469;SDS011;52067;50.710;14.492;2022-08-03T15:22:04;3.45;;;1.80;;
65469;SDS011;52067;50.710;14.492;2022-08-03T15:24:29;5.43;;;1.80;;
65469;SDS011;52067;50.710;14.492;2022-08-03T15:26:55;4.28;;;1.88;;